createdAt,value
2022-11-26T00:00:49.759Z,97.03
2022-11-26T00:03:17.743Z,96.80
2022-11-26T00:05:48.122Z,95.98
2022-11-26T00:08:21.759Z,95.50
2022-11-26T00:10:51.049Z,96.19
2022-11-26T00:13:21.307Z,95.70
2022-11-26T00:15:49.915Z,96.28
2022-11-26T00:18:17.746Z,95.95
2022-11-26T00:20:46.222Z,96.68
2022-11-26T00:23:21.271Z,96.22
2022-11-26T00:25:51.203Z,96.21
2022-11-26T00:28:29.925Z,96.67
2022-11-26T00:30:59.438Z,96.87
2022-11-26T00:33:27.870Z,96.83
2022-11-26T00:35:57.533Z,96.79
2022-11-26T00:38:26.683Z,97.53
2022-11-26T00:40:54.255Z,98.06
2022-11-26T00:43:21.797Z,97.12
2022-11-26T00:45:50.436Z,98.20
2022-11-26T00:48:19.067Z,96.76
2022-11-26T00:50:49.555Z,97.54
2022-11-26T00:53:19.166Z,97.98
2022-11-26T00:55:50.224Z,97.79
2022-11-26T00:58:23.923Z,98.38
2022-11-26T01:00:52.190Z,98.31
2022-11-26T01:03:19.999Z,98.92
2022-11-26T01:05:50.207Z,99.00
2022-11-26T01:08:21.622Z,98.97
2022-11-26T01:10:50.483Z,98.42
2022-11-26T01:13:17.960Z,99.06
2022-11-26T01:15:45.529Z,98.97
2022-11-26T01:18:14.957Z,99.24
2022-11-26T01:20:42.607Z,98.67
2022-11-26T01:23:10.946Z,98.61
2022-11-26T01:25:38.634Z,98.85
2022-11-26T01:28:10.735Z,98.76
2022-11-26T01:30:38.354Z,98.65
2022-11-26T01:33:05.866Z,97.94
2022-11-26T01:35:33.636Z,98.12
2022-11-26T01:38:01.280Z,97.96
2022-11-26T01:40:50.821Z,98.62
2022-11-26T01:43:25.368Z,98.79
2022-11-26T01:45:52.927Z,98.48
2022-11-26T01:48:29.847Z,98.31
2022-11-26T01:51:00.028Z,98.36
2022-11-26T01:53:33.985Z,98.96
2022-11-26T01:56:04.818Z,98.52
2022-11-26T01:58:39.843Z,98.64
2022-11-26T02:01:08.452Z,98.43
2022-11-26T02:03:40.597Z,98.63
2022-11-26T02:06:10.142Z,98.25
2022-11-26T02:08:37.800Z,98.35
2022-11-26T02:11:16.295Z,98.05
2022-11-26T02:13:46.908Z,98.46
2022-11-26T02:16:21.304Z,98.99
2022-11-26T02:18:55.888Z,99.17
2022-11-26T02:21:26.760Z,100.00
2022-11-26T02:24:16.336Z,100.00
2022-11-26T02:27:21.320Z,100.00
2022-11-26T02:30:00.789Z,100.00
2022-11-26T02:32:31.126Z,100.00
2022-11-26T02:35:02.413Z,100.00
2022-11-26T02:37:33.172Z,100.00
2022-11-26T02:40:00.710Z,100.00
2022-11-26T02:42:29.862Z,100.00
2022-11-26T02:45:00.241Z,100.00
2022-11-26T02:47:28.493Z,100.00
2022-11-26T02:49:57.356Z,100.00
2022-11-26T02:52:26.334Z,100.00
2022-11-26T02:54:54.032Z,100.00
2022-11-26T02:57:23.110Z,100.00
2022-11-26T02:59:50.817Z,100.00
2022-11-26T03:02:25.884Z,100.00
2022-11-26T03:04:55.830Z,100.00
2022-11-26T03:07:24.052Z,100.00
2022-11-26T03:09:53.368Z,100.00
2022-11-26T03:12:21.104Z,100.00
2022-11-26T03:14:48.632Z,99.82
2022-11-26T03:17:16.410Z,100.00
2022-11-26T03:19:45.484Z,99.57
2022-11-26T03:22:13.267Z,99.79
2022-11-26T03:24:41.108Z,100.00
2022-11-26T03:27:08.744Z,99.88
2022-11-26T03:29:36.220Z,99.60
2022-11-26T03:32:03.863Z,99.18
2022-11-26T03:34:31.607Z,98.62
2022-11-26T03:37:00.506Z,98.76
2022-11-26T03:39:28.000Z,98.88
2022-11-26T03:41:55.474Z,99.37
2022-11-26T03:44:23.093Z,98.87
2022-11-26T03:46:50.608Z,98.73
2022-11-26T03:49:21.293Z,99.21
2022-11-26T03:51:48.771Z,99.24
2022-11-26T03:54:17.627Z,98.67
2022-11-26T03:56:45.165Z,98.63
2022-11-26T03:59:12.718Z,98.95
2022-11-26T04:01:40.410Z,99.26
2022-11-26T04:04:07.979Z,99.18
2022-11-26T04:06:35.538Z,99.07
2022-11-26T04:09:03.156Z,99.74
2022-11-26T04:11:32.024Z,100.00
2022-11-26T04:13:59.547Z,100.00
2022-11-26T04:16:27.186Z,100.00
2022-11-26T04:18:54.781Z,100.00
2022-11-26T04:21:22.352Z,100.00
2022-11-26T04:23:49.873Z,100.00
2022-11-26T04:26:17.584Z,100.00
2022-11-26T04:28:46.537Z,100.00
2022-11-26T04:31:14.516Z,100.00
2022-11-26T04:33:42.756Z,100.00
2022-11-26T04:36:10.625Z,100.00
2022-11-26T04:38:38.478Z,100.00
2022-11-26T04:41:06.238Z,100.00
2022-11-26T04:43:33.940Z,100.00
2022-11-26T04:46:02.912Z,100.00
2022-11-26T04:48:30.511Z,100.00
2022-11-26T04:50:58.115Z,99.94
2022-11-26T04:53:25.643Z,100.00
2022-11-26T04:55:53.749Z,99.75
2022-11-26T04:58:21.715Z,100.00
2022-11-26T05:00:51.287Z,100.00
2022-11-26T05:03:20.491Z,99.45
2022-11-26T05:05:48.821Z,99.35
2022-11-26T05:08:16.428Z,98.70
2022-11-26T05:10:43.965Z,98.84
2022-11-26T05:13:11.522Z,99.19
2022-11-26T05:15:39.290Z,99.14
2022-11-26T05:18:06.852Z,98.52
2022-11-26T05:20:35.706Z,98.66
2022-11-26T05:23:03.193Z,98.83
2022-11-26T05:25:30.688Z,98.69
2022-11-26T05:27:58.178Z,98.76
2022-11-26T05:30:25.693Z,98.88
2022-11-26T05:32:53.165Z,99.10
2022-11-26T05:35:20.709Z,98.88
2022-11-26T05:37:49.572Z,99.63
2022-11-26T05:40:17.552Z,99.54
2022-11-26T05:42:45.063Z,99.44
2022-11-26T05:45:12.664Z,99.67
2022-11-26T05:47:40.326Z,99.53
2022-11-26T05:50:09.366Z,99.79
2022-11-26T05:52:36.872Z,99.39
2022-11-26T05:55:06.678Z,99.68
2022-11-26T05:57:34.182Z,99.23
2022-11-26T06:00:01.778Z,99.66
2022-11-26T06:02:29.326Z,99.72
2022-11-26T06:04:56.905Z,99.54
2022-11-26T06:07:24.457Z,99.07
2022-11-26T06:09:51.968Z,99.13
2022-11-26T06:12:20.907Z,98.48
2022-11-26T06:14:48.891Z,98.21
2022-11-26T06:17:16.898Z,98.62
2022-11-26T06:19:44.411Z,98.00
2022-11-26T06:22:11.966Z,98.03
2022-11-26T06:24:40.017Z,98.27
2022-11-26T06:27:07.806Z,98.30
2022-11-26T06:29:36.932Z,98.09
2022-11-26T06:32:04.662Z,97.71
2022-11-26T06:34:32.234Z,97.44
2022-11-26T06:36:59.686Z,97.49
2022-11-26T06:39:27.430Z,97.79
2022-11-26T06:41:54.929Z,97.28
2022-11-26T06:44:22.434Z,97.53
2022-11-26T06:46:51.246Z,97.92
2022-11-26T06:49:18.871Z,97.27
2022-11-26T06:51:46.383Z,97.20
2022-11-26T06:54:13.850Z,96.75
2022-11-26T06:56:41.350Z,97.17
2022-11-26T06:59:08.845Z,97.17
2022-11-26T07:01:36.379Z,97.43
2022-11-26T07:04:05.446Z,97.23
2022-11-26T07:06:34.095Z,97.04
2022-11-26T07:09:04.305Z,97.09
2022-11-26T07:11:32.063Z,97.27
2022-11-26T07:13:59.703Z,97.41
2022-11-26T07:16:27.220Z,97.33
2022-11-26T07:19:02.474Z,97.67
2022-11-26T07:21:32.150Z,97.87
2022-11-26T07:24:00.254Z,97.67
2022-11-26T07:26:27.779Z,97.52
2022-11-26T07:28:55.301Z,97.78
2022-11-26T07:31:23.971Z,97.71
2022-11-26T07:33:52.093Z,97.26
2022-11-26T07:36:21.482Z,97.69
2022-11-26T07:38:50.488Z,97.63
2022-11-26T07:41:19.667Z,97.29
2022-11-26T07:43:47.924Z,97.34
2022-11-26T07:46:17.138Z,97.29
2022-11-26T07:48:44.972Z,97.02
2022-11-26T07:51:17.716Z,97.06
2022-11-26T07:53:45.484Z,97.28
2022-11-26T07:56:14.659Z,97.99
2022-11-26T07:58:42.341Z,97.67
2022-11-26T08:01:10.935Z,97.68
2022-11-26T08:03:39.829Z,98.19
2022-11-26T08:06:09.132Z,97.90
2022-11-26T08:08:37.415Z,97.91
2022-11-26T08:11:06.409Z,98.12
2022-11-26T08:13:35.290Z,97.86
2022-11-26T08:16:02.938Z,98.20
2022-11-26T08:18:30.460Z,97.67
2022-11-26T08:20:58.246Z,98.30
2022-11-26T08:23:26.479Z,98.05
2022-11-26T08:26:20.386Z,98.42
2022-11-26T08:28:44.743Z,97.88
2022-11-26T08:31:13.867Z,97.54
2022-11-26T08:33:42.801Z,98.31
2022-11-26T08:36:11.278Z,97.83
2022-11-26T08:38:41.332Z,98.48
2022-11-26T08:41:11.591Z,98.45
2022-11-26T08:44:04.988Z,98.46
2022-11-26T08:46:29.371Z,98.21
2022-11-26T08:48:57.651Z,98.80
2022-11-26T08:51:25.936Z,98.20
2022-11-26T08:53:53.856Z,98.59
2022-11-26T08:56:21.836Z,99.73
2022-11-26T08:58:51.349Z,99.37
2022-11-26T09:01:20.564Z,99.06
2022-11-26T09:03:50.395Z,99.31
2022-11-26T09:06:18.587Z,99.38
2022-11-26T09:09:07.757Z,100.00
2022-11-26T09:11:37.740Z,99.98
2022-11-26T09:14:06.586Z,100.00
2022-11-26T09:16:34.258Z,100.00
2022-11-26T09:19:04.381Z,100.00
2022-11-26T09:21:31.928Z,100.00
2022-11-26T09:24:00.093Z,100.00
2022-11-26T09:26:27.862Z,100.00
2022-11-26T09:28:55.468Z,100.00
2022-11-26T09:31:23.081Z,100.00
2022-11-26T09:33:51.146Z,100.00
2022-11-26T09:36:20.316Z,100.00
2022-11-26T09:38:48.123Z,100.00
2022-11-26T09:41:30.811Z,100.00
2022-11-26T09:44:09.076Z,100.00
2022-11-26T09:47:10.081Z,100.00
2022-11-26T09:49:44.717Z,100.00
2022-11-26T09:52:21.814Z,100.00
2022-11-26T09:54:54.858Z,100.00
2022-11-26T09:57:28.982Z,100.00
2022-11-26T09:59:59.660Z,100.00
2022-11-26T10:02:27.341Z,100.00
2022-11-26T10:04:55.017Z,100.00
2022-11-26T10:07:42.469Z,100.00
2022-11-26T10:10:16.394Z,100.00
2022-11-26T10:13:17.343Z,100.00
2022-11-26T10:15:40.130Z,100.00
2022-11-26T10:18:16.591Z,100.00
2022-11-26T10:21:04.409Z,99.48
2022-11-26T10:23:37.086Z,99.70
2022-11-26T10:26:11.384Z,99.40
2022-11-26T10:28:41.318Z,99.08
2022-11-26T10:31:16.165Z,100.00
2022-11-26T10:33:49.602Z,99.36
2022-11-26T10:36:22.846Z,99.29
2022-11-26T10:38:51.925Z,98.55
2022-11-26T10:41:20.548Z,98.67
2022-11-26T10:43:49.216Z,98.89
2022-11-26T10:46:32.640Z,98.00
2022-11-26T10:49:24.870Z,97.89
2022-11-26T10:51:55.131Z,98.29
2022-11-26T10:54:29.908Z,98.15
2022-11-26T10:57:03.406Z,97.57
2022-11-26T10:59:34.320Z,97.65
2022-11-26T11:02:03.389Z,97.21
2022-11-26T11:04:32.686Z,96.54
2022-11-26T11:07:00.576Z,96.36
2022-11-26T11:09:33.564Z,95.50
2022-11-26T11:12:22.336Z,95.03
2022-11-26T11:14:51.304Z,95.03
2022-11-26T11:17:34.245Z,95.36
2022-11-26T11:20:07.601Z,95.26
2022-11-26T11:22:35.396Z,95.52
2022-11-26T11:25:07.820Z,95.46
2022-11-26T11:27:39.216Z,94.94
2022-11-26T11:30:08.755Z,94.48
2022-11-26T11:32:39.172Z,94.04
2022-11-26T11:35:21.350Z,94.57
2022-11-26T11:37:50.054Z,94.60
2022-11-26T11:40:25.151Z,94.05
2022-11-26T11:42:55.655Z,93.81
2022-11-26T11:45:29.738Z,94.00
2022-11-26T11:48:01.459Z,94.32
2022-11-26T11:50:33.985Z,94.07
2022-11-26T11:53:13.387Z,93.88
2022-11-26T11:55:54.234Z,93.10
2022-11-26T11:58:52.949Z,93.13
2022-11-26T12:01:29.797Z,92.85
2022-11-26T12:04:22.014Z,93.08
2022-11-26T12:07:00.211Z,92.93
2022-11-26T12:09:34.082Z,92.83
2022-11-26T12:12:06.171Z,92.90
2022-11-26T12:14:36.728Z,93.13
2022-11-26T12:17:06.996Z,92.34
2022-11-26T12:19:39.360Z,92.42
2022-11-26T12:22:14.598Z,92.62
2022-11-26T12:24:46.273Z,92.34
2022-11-26T12:27:23.912Z,91.64
2022-11-26T12:29:54.883Z,91.37
2022-11-26T12:32:26.503Z,90.72
2022-11-26T12:34:56.247Z,90.93
2022-11-26T12:37:26.737Z,90.74
2022-11-26T12:39:58.772Z,91.68
2022-11-26T12:42:36.059Z,92.87
2022-11-26T12:45:17.422Z,93.30
2022-11-26T12:47:51.571Z,93.67
2022-11-26T12:50:22.352Z,94.00
2022-11-26T12:52:53.913Z,93.78
2022-11-26T12:55:26.121Z,93.54
2022-11-26T12:57:57.128Z,93.69
2022-11-26T13:00:58.139Z,93.89
2022-11-26T13:10:56.983Z,94.31
2022-11-26T13:14:08.594Z,94.26
2022-11-26T13:20:59.071Z,94.12
2022-11-26T13:23:59.959Z,93.69
2022-11-26T13:27:18.434Z,93.99
2022-11-26T13:30:00.040Z,93.99
2022-11-26T13:33:15.799Z,94.25
2022-11-26T13:36:40.838Z,94.68
2022-11-26T13:39:52.422Z,94.97
2022-11-26T13:42:46.895Z,94.38
2022-11-26T13:45:54.582Z,94.09
2022-11-26T13:48:25.110Z,94.46
2022-11-26T13:50:58.269Z,94.36
2022-11-26T13:53:42.465Z,94.48
2022-11-26T13:56:10.782Z,93.80
2022-11-26T13:58:45.115Z,94.08
2022-11-26T14:01:30.364Z,94.24
2022-11-26T14:03:58.702Z,93.58
2022-11-26T14:06:28.767Z,94.07
2022-11-26T14:08:57.375Z,93.26
2022-11-26T14:11:57.245Z,92.64
2022-11-26T14:14:32.238Z,92.43
2022-11-26T14:17:22.009Z,92.06
2022-11-26T14:20:03.364Z,92.81
2022-11-26T14:22:42.555Z,92.35
2022-11-26T14:56:59.807Z,92.68
2022-11-26T15:01:21.605Z,92.79
2022-11-26T15:08:26.716Z,92.25
2022-11-26T15:25:06.996Z,92.13
2022-11-26T15:40:39.965Z,92.91
2022-11-26T15:44:08.837Z,93.04
2022-11-26T15:47:19.848Z,92.80
2022-11-26T15:50:03.169Z,93.38
2022-11-26T15:52:59.320Z,92.55
2022-11-26T15:59:45.001Z,93.18
2022-11-26T16:03:55.364Z,92.67
2022-11-26T16:09:53.465Z,92.59
2022-11-26T16:13:19.378Z,92.58
2022-11-26T16:22:28.242Z,92.46
2022-11-26T16:25:48.890Z,92.77
2022-11-26T16:30:21.707Z,92.57
2022-11-26T16:31:38.469Z,92.81
2022-11-26T16:34:10.999Z,92.89
2022-11-26T16:36:42.476Z,92.54
2022-11-26T16:39:12.118Z,93.15
2022-11-26T16:41:39.906Z,92.38
2022-11-26T16:44:07.457Z,92.77
2022-11-26T16:46:36.305Z,92.78
2022-11-26T16:49:04.642Z,93.19
2022-11-26T16:51:32.329Z,92.88
2022-11-26T16:53:59.874Z,92.79
2022-11-26T16:56:32.936Z,92.72
2022-11-26T16:59:02.497Z,92.84
2022-11-26T17:01:30.227Z,93.10
2022-11-26T17:03:57.809Z,92.28
2022-11-26T17:07:24.344Z,92.49
2022-11-26T17:13:22.514Z,92.97
2022-11-26T17:16:30.927Z,93.30
2022-11-26T17:19:17.868Z,93.41
2022-11-26T17:25:12.028Z,93.38
2022-11-26T17:28:01.236Z,93.45
2022-11-26T17:33:48.351Z,93.57
2022-11-26T17:36:42.530Z,93.25
2022-11-26T17:41:06.720Z,93.09
2022-11-26T17:46:24.637Z,92.94
2022-11-26T17:50:17.685Z,93.13
2022-11-26T17:53:48.127Z,93.45
2022-11-26T17:56:15.207Z,92.79
2022-11-26T17:59:21.103Z,93.37
2022-11-26T18:02:26.635Z,93.30
2022-11-26T18:08:19.240Z,93.27
2022-11-26T18:11:51.729Z,92.85
2022-11-26T18:18:45.869Z,93.34
2022-11-26T18:21:16.259Z,93.15
2022-11-26T18:23:48.142Z,93.78
2022-11-26T18:27:50.746Z,94.37
2022-11-26T18:31:27.103Z,93.74
2022-11-26T18:34:52.729Z,94.26
2022-11-26T18:41:06.036Z,94.11
2022-11-26T18:52:57.306Z,93.58
2022-11-26T18:55:00.829Z,93.63
2022-11-26T19:02:00.393Z,94.15
2022-11-26T19:04:29.558Z,94.25
2022-11-26T19:06:57.215Z,94.79
2022-11-26T19:09:24.816Z,95.04
2022-11-26T19:23:28.611Z,93.14
2022-11-26T19:30:53.458Z,93.03
2022-11-26T19:34:07.705Z,93.23
2022-11-26T19:37:31.143Z,93.28
2022-11-26T19:40:42.303Z,92.85
2022-11-26T19:51:18.382Z,92.83
2022-11-26T19:55:02.124Z,92.97
2022-11-26T20:03:05.505Z,92.79
2022-11-26T23:08:54.262Z,90.42
2022-11-26T23:34:13.357Z,89.64
2022-11-26T23:44:15.088Z,89.60
2022-11-26T23:50:49.455Z,90.39
2022-11-26T23:54:09.921Z,89.21
